Tiempo atmosférico en la estación meteorológica de Pola de Lena, Asturias (370 m.)



Fecha
DESCASC
Temp. máxima en grados centígrados (hora)
DESCASC
Temp. mínima en grados centígrados (hora)
DESCASC
Temp. media en grados centígrados
DESCASC
Racha de viento máxima en m/sg (hora)
DESCASC
Velocidad máxima media en intervalos de 10 minutos(hora)
DESCASC
Precipitaciones diarias en mm
DESCASC
Precipitaciones de 00:00 a 06:00 en mm
DESCASC
Precipitaciones de 06:00 a 12:00 en mm
DESCASC
Precipitaciones de 12:00 a 18:00 en mm
DESCASC
Precipitaciones de 18:00 a 24:00 en mm
DESCASC

Gráficas

Temp. máximas Temp. mínimas Temp. medias Precipitaciones Rachas de viento máximas Velocidades máximas media en intervalos de 10 minutos

Datos horarios

Fecha y hora oficial Temperatura (ºC) Velocidad del viento (km/h) Dirección del viento Racha (km/h) Dirección de racha Precipitación (mm) Presión (hPa) Tendencia (hPa) Humedad (%)
2020-05-25 23:00:00 14.4 4 Oeste 8 Noroeste 0 -- -- 83
2020-05-25 22:00:00 16.9 3 Norte 13 Nordeste 0 -- -- 75
2020-05-25 21:00:00 18.3 8 Norte 21 Norte 0 -- -- 71
2020-05-25 20:00:00 19.1 6 Norte 23 Norte 0 -- -- 69
2020-05-25 19:00:00 20 12 Norte 22 Norte 0 -- -- 68
2020-05-25 18:00:00 21.4 16 Norte 25 Norte 0 -- -- 66
2020-05-25 17:00:00 22.4 11 Norte 25 Norte 0 -- -- 65
2020-05-25 16:00:00 22.1 6 Norte 14 Norte 0 -- -- 66
2020-05-25 15:00:00 20.9 7 Norte 12 Norte 0 -- -- 68
2020-05-25 14:00:00 19.3 4 Norte 8 Norte 0 -- -- 75
2020-05-25 13:00:00 17.9 3 Norte 8 Norte 0 -- -- 78
2020-05-25 12:00:00 16.5 2 Nordeste 6 Noroeste 0 -- -- 83
2020-05-25 11:00:00 15.1 3 Sudeste 7 Sudeste 0 -- -- 89
2020-05-25 10:00:00 13.9 2 Nordeste 6 Nordeste 0 -- -- 96
2020-05-25 09:00:00 13.1 2 Norte 4 Nordeste 0 -- -- 98
2020-05-25 08:00:00 13 0 Calma -- -- -- -- -- 97
2020-05-25 07:00:00 13.1 0 Calma 6 Sudoeste 0 -- -- 97
2020-05-25 06:00:00 13.2 3 Norte 6 Norte 0 -- -- 97
2020-05-25 05:00:00 13.7 2 Noroeste 5 Norte 0 -- -- 95
2020-05-25 04:00:00 14.1 2 Noroeste 4 Nordeste 0 -- -- 92
2020-05-25 03:00:00 14.3 2 Norte 6 Noroeste 0 -- -- 90
2020-05-25 02:00:00 14.5 2 Nordeste 5 Norte 0 -- -- 90
2020-05-25 01:00:00 14.7 3 Norte 8 Norte 0 -- -- 89
2020-05-25 00:00:00 15.1 0 Calma 5 Norte 0 -- -- 86
2020-05-24 23:00:00 15.5 2 Norte 9 Norte 0 -- -- 85
2020-05-24 22:00:00 15.8 4 Norte 14 Norte 0 -- -- 84
2020-05-24 21:00:00 16.6 5 Norte 13 Noroeste 0 -- -- 82
2020-05-24 20:00:00 17.5 9 Norte 21 Norte 0 -- -- 80
2020-05-24 19:00:00 19.2 4 Nordeste 14 Norte 0 -- -- 76
2020-05-24 18:00:00 20 5 Sudeste 10 Sudeste 0 -- -- 73
2020-05-24 17:00:00 20 4 Sudeste 14 Este 0 -- -- 71
2020-05-24 16:00:00 19.2 5 Sudeste 11 Este 0 -- -- 72
2020-05-24 15:00:00 17.8 6 Norte 15 Norte 0 -- -- 76
2020-05-24 14:00:00 16.9 5 Norte 13 Norte 0 -- -- 77
2020-05-24 13:00:00 15.6 6 Norte 17 Norte 0 -- -- 83
2020-05-24 12:00:00 14.9 8 Norte 13 Nordeste 0 -- -- 82
2020-05-24 11:00:00 13.8 4 Norte 11 Norte 0 -- -- 89
2020-05-24 10:00:00 12.6 4 Norte 8 Norte 0 -- -- 94
2020-05-24 09:00:00 12.1 0 Calma 5 Norte 0 -- -- 94
2020-05-24 08:00:00 12 3 Norte 6 Norte 0 -- -- 94
2020-05-24 07:00:00 12 2 Noroeste 5 Noroeste 0 -- -- 95
2020-05-24 06:00:00 12.1 0 Calma 4 Norte 0 -- -- 94
2020-05-24 05:00:00 12.3 2 Norte 4 Norte 0 -- -- 95
2020-05-24 04:00:00 12.5 0 Calma 4 Norte 0 -- -- 95
2020-05-24 03:00:00 12.7 0 Calma 4 Noroeste 0 -- -- 94
2020-05-24 02:00:00 12.9 2 Noroeste 5 Norte 0 -- -- 95
2020-05-24 01:00:00 12.9 0 Calma 5 Oeste 0 -- -- 95
2020-05-24 00:00:00 12.9 0 Calma 8 Norte 0 -- -- 95
2020-05-23 23:00:00 13.3 3 Noroeste 9 Noroeste 0 -- -- 91
2020-05-23 22:00:00 13.7 3 Noroeste 10 Norte 0 -- -- 86
2020-05-23 21:00:00 14.4 5 Norte 11 Nordeste 0 -- -- 82
2020-05-23 20:00:00 14.7 5 Nordeste 10 Nordeste 0 -- -- 82
2020-05-23 19:00:00 15.1 3 Norte 10 Norte 0 -- -- 81
2020-05-23 18:00:00 15.3 3 Norte 12 Sudoeste 0 -- -- 80
2020-05-23 17:00:00 15 3 Nordeste 15 Norte 0 -- -- 80
2020-05-23 16:00:00 15.1 5 Norte 14 Norte 0 -- -- 79
2020-05-23 15:00:00 15 7 Norte 14 Norte 0 -- -- 78
2020-05-23 14:00:00 15.2 3 Nordeste 16 Nordeste 0 -- -- 77
2020-05-23 13:00:00 15 5 Nordeste 18 Norte 0 -- -- 79
2020-05-23 12:00:00 13.3 6 Nordeste 17 Norte 0 -- -- 88
2020-05-23 11:00:00 13.2 5 Nordeste 13 Noroeste 0 -- -- 92
2020-05-23 10:00:00 13 4 Norte 15 Sudoeste 0 -- -- 95
2020-05-23 09:00:00 12.6 4 Sur 12 Sur 0 -- -- 97
2020-05-23 08:00:00 12.3 2 Este 9 Oeste 0.2 -- -- 99
2020-05-23 07:00:00 12.1 2 Norte 9 Noroeste 0.2 -- -- 99
2020-05-23 06:00:00 12.3 4 Norte 14 Noroeste 0.2 -- -- 98
2020-05-23 05:00:00 12.6 4 Sudeste 13 Sudoeste 0 -- -- 97
2020-05-23 04:00:00 13.2 5 Norte 15 Norte 0.2 -- -- 97
2020-05-23 03:00:00 13.7 5 Oeste 14 Norte 0.2 -- -- 97
2020-05-23 02:00:00 14 3 Oeste 17 Sudoeste 0 -- -- 96
2020-05-23 01:00:00 14.4 9 Sudoeste 14 Sudoeste 0 -- -- 96
2020-05-23 00:00:00 14.9 2 Oeste 10 Sudoeste 0 -- -- 96
2020-05-22 23:00:00 15.3 5 Sudoeste 13 Sudoeste 0 -- -- 93
2020-05-22 22:00:00 16.2 7 Norte 16 Nordeste 0 -- -- 86
2020-05-22 21:00:00 17.1 10 Norte 22 Norte 0 -- -- 83
2020-05-22 20:00:00 18.2 9 Norte 26 Norte 0 -- -- 80
2020-05-22 19:00:00 19.8 15 Norte 23 Norte 0 -- -- 73
2020-05-22 18:00:00 21.2 13 Norte 26 Norte 0 -- -- 69
2020-05-22 17:00:00 22.3 12 Norte 31 Norte 0 -- -- 65
2020-05-22 16:00:00 23.7 13 Norte 29 Norte 0 -- -- 64
2020-05-22 15:00:00 23.6 15 Norte 27 Norte 0 -- -- 62
2020-05-22 14:00:00 23.5 14 Norte 25 Norte 0 -- -- 61
2020-05-22 13:00:00 22.5 10 Norte 19 Norte 0 -- -- 65
2020-05-22 12:00:00 21.3 10 Norte 20 Nordeste 0 -- -- 68
2020-05-22 11:00:00 19.7 9 Norte 16 Norte 0 -- -- 66
2020-05-22 10:00:00 18.1 5 Norte 12 Norte 0 -- -- 77
2020-05-22 09:00:00 15.2 2 Nordeste 5 Sudeste 0 -- -- 93
2020-05-22 08:00:00 12.8 2 Sur 3 Sur 0 -- -- 97
2020-05-22 07:00:00 12.8 0 Calma 9 Sur 0 -- -- 97
2020-05-22 06:00:00 13 0 Calma 6 Sudoeste 0 -- -- 96
2020-05-22 05:00:00 13.7 4 Sur 7 Sudoeste 0 -- -- 95
2020-05-22 04:00:00 14.3 2 Sur 5 Sudeste 0 -- -- 93
2020-05-22 03:00:00 14.9 0 Calma 4 Sur 0 -- -- 91
2020-05-22 02:00:00 15.7 0 Calma 5 Oeste 0 -- -- 89
2020-05-22 01:00:00 16.4 2 Sudoeste 8 Sur 0 -- -- 87
2020-05-22 00:00:00 17.4 5 Sur 8 Sudeste 0 -- -- 83
2020-05-21 23:00:00 18.9 3 Sudoeste 10 Oeste 0 -- -- 76
2020-05-21 22:00:00 21.6 3 Oeste 16 Sudoeste 0 -- -- 66
2020-05-21 21:00:00 23.9 9 Sudoeste 15 Sudoeste 0 -- -- 56
2020-05-21 20:00:00 25.2 5 Noroeste 23 Norte 0 -- -- 54
2020-05-21 19:00:00 26 13 Norte 22 Norte 0 -- -- 55
2020-05-21 18:00:00 27.3 9 Norte 23 Norte 0 -- -- 55
2020-05-21 17:00:00 27.9 14 Norte 26 Norte 0 -- -- 54
2020-05-21 16:00:00 27.8 7 Norte 22 Norte 0 -- -- 57
2020-05-21 15:00:00 26.8 10 Norte 20 Norte 0 -- -- 61
2020-05-21 14:00:00 25.1 9 Norte 18 Norte 0 -- -- 63
2020-05-21 13:00:00 23.7 10 Norte 17 Noroeste 0 -- -- 63
2020-05-21 12:00:00 21.2 6 Norte 15 Norte 0 -- -- 68
2020-05-21 11:00:00 19.1 3 Nordeste 9 Norte 0 -- -- 76
2020-05-21 10:00:00 15.5 4 Norte 10 Norte 0 -- -- 88
2020-05-21 09:00:00 12.1 4 Norte 8 Norte 0 -- -- 98
2020-05-21 08:00:00 11.3 0 Calma 3 Norte 0 -- -- 98
2020-05-21 07:00:00 11 0 Calma 4 Oeste 0 -- -- 98
2020-05-21 06:00:00 11 0 Calma 4 Oeste 0 -- -- 97
2020-05-21 05:00:00 11.1 2 Sudoeste 5 Sudeste 0 -- -- 97
2020-05-21 04:00:00 11.2 0 Calma 4 Sur 0 -- -- 96
2020-05-21 03:00:00 11.6 0 Calma 3 Este 0 -- -- 95
2020-05-21 02:00:00 12.1 2 Sudoeste 5 Sudeste 0 -- -- 94
2020-05-21 01:00:00 12.7 3 Sudoeste 6 Sudoeste 0 -- -- 91
2020-05-21 00:00:00 13.5 4 Oeste 9 Sur 0 -- -- 88
2020-05-20 23:00:00 14.8 2 Oeste 13 Sudoeste 0 -- -- 82
2020-05-20 22:00:00 16.6 8 Sudoeste 16 Oeste 0 -- -- 74
2020-05-20 21:00:00 17.9 9 Sudoeste 21 Sudoeste 0 -- -- 72
2020-05-20 20:00:00 20.5 8 Noroeste 26 Norte 0 -- -- 59
2020-05-20 19:00:00 23.7 7 Noroeste 23 Norte 0 -- -- 52
2020-05-20 18:00:00 25.1 12 Norte 26 Norte 0 -- -- 44
2020-05-20 17:00:00 26.2 13 Norte 24 Norte 0 -- -- 47
2020-05-20 16:00:00 26.5 13 Norte 24 Norte 0 -- -- 50
2020-05-20 15:00:00 26.4 12 Norte 24 Norte 0 -- -- 54
2020-05-20 14:00:00 26.2 13 Norte 23 Norte 0 -- -- 56
2020-05-20 13:00:00 25.6 10 Norte 21 Norte 0 -- -- 54
2020-05-20 12:00:00 24.2 9 Nordeste 17 Norte 0 -- -- 52
2020-05-20 11:00:00 21.2 4 Norte 6 Norte 0 -- -- 73
2020-05-20 10:00:00 17.7 3 Nordeste 5 Norte 0 -- -- 79
2020-05-20 09:00:00 14.2 0 Calma 4 Sudeste 0 -- -- 95
2020-05-20 08:00:00 10.7 3 Sudoeste 8 Sudeste 0 -- -- 98
2020-05-20 07:00:00 10.7 0 Calma 9 Sudeste 0 -- -- 96
2020-05-20 06:00:00 11.1 2 Sur 9 Sudeste 0 -- -- 97
2020-05-20 05:00:00 11.7 5 Sur 11 Sur 0 -- -- 97
2020-05-20 04:00:00 12 0 Calma 9 Sudeste 0 -- -- 96
2020-05-20 03:00:00 12.7 2 Sudoeste 3 Oeste 0 -- -- 95
2020-05-20 02:00:00 13.5 0 Calma 4 Oeste 0 -- -- 94
2020-05-20 01:00:00 14.6 2 Sudoeste 7 Sur 0 -- -- 92
2020-05-20 00:00:00 15.5 2 Sur 8 Sur 0 -- -- 91
2020-05-19 23:00:00 16.9 3 Sur 6 Sudeste 0 -- -- 88
2020-05-19 22:00:00 18.9 4 Oeste 10 Oeste 0 -- -- 80
2020-05-19 21:00:00 21.8 8 Sudoeste 17 Oeste 0 -- -- 71
2020-05-19 20:00:00 23.8 4 Noroeste 18 Oeste 0 -- -- 66
2020-05-19 19:00:00 25 6 Norte 19 Norte 0 -- -- 62
2020-05-19 18:00:00 25.2 10 Norte 23 Norte 0 -- -- 60
2020-05-19 17:00:00 25.5 13 Norte 25 Norte 0 -- -- 56
2020-05-19 16:00:00 24.9 14 Norte 25 Norte 0 -- -- 56
2020-05-19 15:00:00 24.5 10 Norte 24 Norte 0 -- -- 58
2020-05-19 14:00:00 23.7 6 Nordeste 19 Norte 0 -- -- 60
2020-05-19 13:00:00 22.5 10 Norte 18 Norte 0 -- -- 58
2020-05-19 12:00:00 20.8 7 Norte 13 Norte 0 -- -- 67
2020-05-19 11:00:00 18.4 5 Norte 9 Nordeste 0 -- -- 75
2020-05-19 10:00:00 15.9 2 Nordeste 5 Nordeste 0 -- -- 86
2020-05-19 09:00:00 13.4 2 Este 4 Este 0 -- -- 95
2020-05-19 08:00:00 10.7 0 Calma 2 Norte 0 -- -- 99
2020-05-19 07:00:00 10.2 0 Calma 3 Sudoeste 0 -- -- 98
2020-05-19 06:00:00 10.7 2 Sudoeste 3 Sudoeste 0 -- -- 97
2020-05-19 05:00:00 11.2 0 Calma 8 Sudeste 0 -- -- 96
2020-05-19 04:00:00 11.5 0 Calma 4 Sudeste 0 -- -- 97
2020-05-19 03:00:00 11.6 0 Calma 3 Oeste 0 -- -- 96
2020-05-19 02:00:00 12.3 0 Calma 4 Sudoeste 0 -- -- 94
2020-05-19 01:00:00 13 2 Sudoeste 8 Sur 0 -- -- 92
2020-05-19 00:00:00 13.8 3 Sur 6 Sur 0 -- -- 90
2020-05-18 23:00:00 14.7 3 Sudoeste 6 Oeste 0 -- -- 84
2020-05-18 22:00:00 17.5 3 Oeste 12 Oeste 0 -- -- 73
2020-05-18 21:00:00 19.6 6 Oeste 19 Sudoeste 0 -- -- 67
2020-05-18 20:00:00 21.4 6 Norte 17 Norte 0 -- -- 61
2020-05-18 19:00:00 22.8 7 Norte 23 Norte 0 -- -- 56
2020-05-18 18:00:00 23.1 12 Norte 23 Norte 0 -- -- 57
2020-05-18 17:00:00 23.4 13 Norte 26 Norte 0 -- -- 56
2020-05-18 16:00:00 23.4 14 Norte 31 Norte 0 -- -- 53
2020-05-18 15:00:00 23.1 13 Norte 24 Norte 0 -- -- 47
2020-05-18 14:00:00 22.1 12 Norte 21 Norte 0 -- -- 54
2020-05-18 13:00:00 21.1 13 Norte 21 Norte 0 -- -- 57
2020-05-18 12:00:00 19.3 8 Norte 14 Norte 0 -- -- 60
2020-05-18 11:00:00 16.1 5 Norte 9 Norte 0 -- -- 63
2020-05-18 10:00:00 12.8 3 Norte 5 Nordeste 0 -- -- 78
2020-05-18 09:00:00 9.6 0 Calma 12 Sudeste 0 -- -- 91
2020-05-18 08:00:00 6.5 3 Sudoeste 9 Sudeste 0 -- -- 98
2020-05-18 07:00:00 6.6 0 Calma 8 Sur 0 -- -- 97
2020-05-18 06:00:00 6.8 0 Calma 12 Sur 0 -- -- 96
2020-05-18 05:00:00 7.7 4 Sur 11 Sudeste 0 -- -- 97
2020-05-18 04:00:00 8.1 0 Calma 11 Sur 0 -- -- 97
2020-05-18 03:00:00 8.8 3 Sur 13 Sudeste 0 -- -- 97
2020-05-18 02:00:00 9.5 4 Sur 9 Sudeste 0 -- -- 96
2020-05-18 01:00:00 10.5 3 Sudoeste 4 Sudoeste 0 -- -- 96
2020-05-18 00:00:00 11.4 0 Calma 6 Sudeste 0 -- -- 93
2020-05-17 23:00:00 12.8 2 Sudoeste 6 Sur 0 -- -- 90
2020-05-17 22:00:00 14.9 2 Sur 14 Sudoeste 0 -- -- 82
2020-05-17 21:00:00 17.3 7 Oeste 15 Sudoeste 0 -- -- 72
2020-05-17 20:00:00 19 6 Norte 22 Norte 0 -- -- 66
2020-05-17 19:00:00 20.3 9 Norte 21 Norte 0 -- -- 62
2020-05-17 18:00:00 20.9 12 Norte 22 Norte 0 -- -- 58
2020-05-17 17:00:00 21.2 10 Norte 22 Norte 0 -- -- 56
2020-05-17 16:00:00 20.7 12 Norte 21 Norte 0 -- -- 52
2020-05-17 15:00:00 19.9 12 Norte 21 Norte 0 -- -- 53
2020-05-17 14:00:00 19 11 Norte 19 Norte 0 -- -- 57
2020-05-17 13:00:00 18 9 Norte 17 Norte 0 -- -- 58
2020-05-17 12:00:00 16.4 5 Norte 11 Norte 0 -- -- 67
2020-05-17 11:00:00 13.8 6 Norte 9 Norte 0 -- -- 72
2020-05-17 10:00:00 11.4 5 Norte 10 Sudeste 0 -- -- 82
2020-05-17 09:00:00 8 5 Sudeste 9 Sur 0 -- -- 94
2020-05-17 08:00:00 5.1 0 Calma 6 Sudeste 0 -- -- 100
2020-05-17 07:00:00 5.1 2 Sudoeste 9 Sudeste 0 -- -- 99
2020-05-17 06:00:00 5.8 2 Sur 8 Sudeste 0 -- -- 99
2020-05-17 05:00:00 6.6 0 Calma 9 Sudeste 0 -- -- 98
2020-05-17 04:00:00 7.3 2 Sudoeste 6 Sudeste 0 -- -- 98
2020-05-17 03:00:00 8.3 0 Calma 2 Sudoeste 0 -- -- 98
2020-05-17 02:00:00 8.9 0 Calma 4 Sudoeste 0 -- -- 97
2020-05-17 01:00:00 9.8 0 Calma 3 Este 0 -- -- 97
2020-05-17 00:00:00 10.1 0 Calma 4 Sur 0 -- -- 95
2020-05-16 23:00:00 11.4 0 Calma 11 Oeste 0 -- -- 90
2020-05-16 22:00:00 12.7 2 Oeste 10 Oeste 0 -- -- 87
2020-05-16 21:00:00 13.8 4 Noroeste 15 Nordeste 0 -- -- 82
2020-05-16 20:00:00 14.9 9 Norte 14 Norte 0 -- -- 76
2020-05-16 19:00:00 15.2 4 Nordeste 15 Norte 0 -- -- 73
2020-05-16 18:00:00 15.6 10 Norte 18 Norte 0 -- -- 70
2020-05-16 17:00:00 15.9 9 Norte 18 Norte 0 -- -- 70
2020-05-16 16:00:00 15.9 8 Norte 19 Norte 0 -- -- 69
2020-05-16 15:00:00 15.1 5 Norte 14 Nordeste 0 -- -- 65
2020-05-16 14:00:00 14.7 3 Norte 9 Nordeste 0 -- -- 67
2020-05-16 13:00:00 14 5 Norte 12 Norte 0 -- -- 69
2020-05-16 12:00:00 12.8 3 Nordeste 12 Norte 0 -- -- 75
2020-05-16 11:00:00 12 6 Norte 14 Noroeste 0 -- -- 75
2020-05-16 10:00:00 9.8 2 Norte 7 Sudeste 0 -- -- 95
2020-05-16 09:00:00 8.3 2 Este 5 Este 0 -- -- 100
2020-05-16 08:00:00 7.1 0 Calma 3 Este 0 -- -- 100
2020-05-16 07:00:00 6.6 0 Calma 5 Sudoeste 0 -- -- 100
2020-05-16 06:00:00 7.6 0 Calma 7 Oeste 0 -- -- 99
2020-05-16 05:00:00 8.8 4 Noroeste 9 Noroeste 0 -- -- 99
2020-05-16 04:00:00 9 4 Noroeste 7 Noroeste 0 -- -- 99
2020-05-16 03:00:00 9.2 4 Noroeste 6 Norte 0 -- -- 99
2020-05-16 02:00:00 9.4 3 Norte 9 Norte 0 -- -- 98
2020-05-16 01:00:00 9.5 3 Norte 6 Norte 0 -- -- 98
2020-05-16 00:00:00 9.7 0 Calma 9 Norte 0 -- -- 96
2020-05-15 23:00:00 9.8 3 Oeste 9 Noroeste 0 -- -- 97
2020-05-15 22:00:00 9.9 2 Norte 12 Noroeste 0 -- -- 96
2020-05-15 21:00:00 10.2 3 Norte 11 Norte 0 -- -- 96
2020-05-15 20:00:00 10.4 3 Norte 9 Noroeste 0.2 -- -- 98
2020-05-15 19:00:00 10.3 6 Norte 11 Norte 0.2 -- -- 100
2020-05-15 18:00:00 10.1 5 Norte 8 Norte 0.4 -- -- 100
2020-05-15 17:00:00 10.3 3 Norte 10 Norte 0 -- -- 98
2020-05-15 16:00:00 10.5 3 Norte 10 Nordeste 0.2 -- -- 97
2020-05-15 15:00:00 10.3 5 Nordeste 11 Norte 0 -- -- 96
2020-05-15 14:00:00 10.3 4 Norte 12 Norte 0.2 -- -- 96
2020-05-15 13:00:00 10.3 6 Nordeste 16 Norte 0.4 -- -- 94
2020-05-15 12:00:00 10.2 7 Norte 18 Norte 0.4 -- -- 98
2020-05-15 11:00:00 10.2 6 Norte 15 Nordeste 0.4 -- -- 99
2020-05-15 10:00:00 10.3 4 Norte 11 Noroeste 0.6 -- -- 100
2020-05-15 09:00:00 10.3 4 Norte 11 Norte 0.6 -- -- 100
2020-05-15 08:00:00 10 4 Norte 10 Norte 1.4 -- -- 100
2020-05-15 07:00:00 9.8 0 Calma 5 Norte 1.2 -- -- 100
2020-05-15 06:00:00 9.8 0 Calma 6 Norte 0.4 -- -- 100
2020-05-15 05:00:00 10 4 Norte 7 Norte 0 -- -- 100
2020-05-15 04:00:00 9.9 3 Oeste 4 Noroeste 0.2 -- -- 100
2020-05-15 03:00:00 10 2 Norte 10 Oeste 0.2 -- -- 100
2020-05-15 02:00:00 10 4 Sudoeste 10 Sudoeste 0.2 -- -- 100
2020-05-15 01:00:00 10.1 2 Norte 16 Sudoeste 0.4 -- -- 99
2020-05-15 00:00:00 10.3 3 Oeste 9 Norte 0 -- -- 99
2020-05-14 23:00:00 10.4 3 Noroeste 11 Oeste 0.2 -- -- 99
2020-05-14 22:00:00 10.5 4 Norte 13 Norte 0.2 -- -- 98
2020-05-14 21:00:00 10.9 4 Norte 14 Norte 0 -- -- 96
2020-05-14 20:00:00 11 6 Norte 19 Norte 0 -- -- 97
2020-05-14 19:00:00 11.2 4 Norte 17 Norte 0.4 -- -- 98
2020-05-14 18:00:00 11.6 3 Noroeste 13 Norte 0.6 -- -- 98
2020-05-14 17:00:00 11.8 6 Norte 11 Norte 0 -- -- 95
2020-05-14 16:00:00 11.6 6 Norte 15 Norte 0 -- -- 95
2020-05-14 15:00:00 11.6 5 Norte 15 Nordeste 0 -- -- 95
2020-05-14 14:00:00 11.7 7 Norte 17 Norte 0.2 -- -- 96
2020-05-14 13:00:00 11.8 6 Norte 18 Norte 0 -- -- 97
2020-05-14 12:00:00 12.1 7 Norte 14 Norte 0.2 -- -- 99
2020-05-14 11:00:00 11.9 4 Norte 8 Norte 0 -- -- 100
2020-05-14 10:00:00 11.3 2 Noroeste 8 Nordeste 0.2 -- -- 100
2020-05-14 09:00:00 11.1 2 Norte 5 Norte 0 -- -- 99
2020-05-14 08:00:00 11 3 Noroeste 9 Oeste 0 -- -- 98
2020-05-14 07:00:00 11.1 4 Oeste 11 Sur 0 -- -- 98
2020-05-14 06:00:00 11.1 4 Oeste 10 Sudoeste 0.2 -- -- 99
2020-05-14 05:00:00 11.2 3 Norte 6 Sudoeste 0 -- -- 100
2020-05-14 04:00:00 11.1 3 Oeste 8 Norte 0 -- -- 100
2020-05-14 03:00:00 11.2 4 Noroeste 10 Oeste 0 -- -- 100
2020-05-14 02:00:00 11.3 2 Norte 6 Norte 0.2 -- -- 100
2020-05-14 01:00:00 11.5 3 Norte 10 Sudoeste 0.2 -- -- 99
2020-05-14 00:00:00 11.8 4 Oeste 10 Noroeste 1.6 -- -- 97
2020-05-13 23:00:00 12.4 3 Noroeste 6 Noroeste 0 -- -- 96
2020-05-13 22:00:00 12.5 2 Sudoeste 9 Norte 0 -- -- 94
2020-05-13 21:00:00 12.7 3 Norte 8 Norte 0 -- -- 94
2020-05-13 20:00:00 12.9 4 Noroeste 14 Norte 0.2 -- -- 93
2020-05-13 19:00:00 13.4 6 Norte 20 Norte 0 -- -- 89
2020-05-13 18:00:00 14.1 11 Norte 23 Norte 0 -- -- 86
2020-05-13 17:00:00 15.3 9 Norte 22 Norte 0 -- -- 79
2020-05-13 16:00:00 15.7 7 Norte 13 Norte 0.2 -- -- 79
2020-05-13 15:00:00 14.8 5 Norte 12 Norte 0 -- -- 82
2020-05-13 14:00:00 14.5 6 Norte 10 Norte 0 -- -- 85
2020-05-13 13:00:00 13.7 3 Nordeste 8 Norte 0 -- -- 86
2020-05-13 12:00:00 12.9 3 Norte 10 Nordeste 0 -- -- 87
2020-05-13 11:00:00 12.1 4 Norte 9 Norte 0 -- -- 93
2020-05-13 10:00:00 10.8 3 Norte 6 Norte 0 -- -- 100
2020-05-13 09:00:00 10.2 0 Calma 2 Norte 0 -- -- 100
2020-05-13 08:00:00 9.8 0 Calma 6 Oeste 0.2 -- -- 100
2020-05-13 07:00:00 9.6 3 Sudoeste 9 Norte 0.2 -- -- 100
2020-05-13 06:00:00 9.7 4 Norte 9 Norte 0 -- -- 100
2020-05-13 05:00:00 9.8 3 Noroeste 6 Norte 0 -- -- 100
2020-05-13 04:00:00 9.8 0 Calma 4 Norte 0 -- -- 100
2020-05-13 03:00:00 9.8 2 Norte 4 Noroeste 0 -- -- 100
2020-05-13 02:00:00 9.9 0 Calma 2 Norte 0 -- -- 100
2020-05-13 01:00:00 9.9 0 Calma 4 Norte 0 -- -- 99
2020-05-13 00:00:00 10 0 Calma 4 Norte 0.6 -- -- 99
2020-05-12 23:00:00 10 2 Norte 4 Norte 0.2 -- -- 99
2020-05-12 22:00:00 10.1 0 Calma 6 Sudoeste 0 -- -- 98
2020-05-12 21:00:00 10.2 6 Sudoeste 13 Sudoeste 1.2 -- -- 98
2020-05-12 20:00:00 10.5 2 Noroeste 9 Sur 2 -- -- 98
2020-05-12 19:00:00 10.9 3 Norte 9 Norte 0.4 -- -- 97
2020-05-12 18:00:00 11.4 4 Norte 14 Norte 0.2 -- -- 96
2020-05-12 17:00:00 12.1 5 Norte 17 Norte 0 -- -- 92
2020-05-12 16:00:00 12.6 6 Norte 13 Nordeste 0 -- -- 89
2020-05-12 15:00:00 13 4 Nordeste 16 Norte 0 -- -- 89
2020-05-12 14:00:00 12.8 8 Norte 17 Norte 0 -- -- 89
2020-05-12 13:00:00 12.7 7 Norte 13 Norte 0 -- -- 90
2020-05-12 12:00:00 12.6 5 Norte 15 Norte 0 -- -- 91
2020-05-12 11:00:00 12.4 9 Norte 16 Norte 0 -- -- 92
2020-05-12 10:00:00 12.2 7 Norte 12 Norte 0 -- -- 95
2020-05-12 09:00:00 11.2 3 Norte 7 Sudoeste 0 -- -- 100
2020-05-12 08:00:00 10.7 4 Sudoeste 16 Sudoeste 0.2 -- -- 99
2020-05-12 07:00:00 11.1 3 Noroeste 10 Norte 0 -- -- 98
2020-05-12 06:00:00 11.3 3 Oeste 9 Sudoeste 0 -- -- 98
2020-05-12 05:00:00 11.4 2 Sudoeste 9 Sudoeste 0.2 -- -- 99
2020-05-12 04:00:00 11.4 2 Oeste 7 Sudoeste 0 -- -- 99
2020-05-12 03:00:00 11.6 3 Oeste 9 Oeste 0 -- -- 99
2020-05-12 02:00:00 11.9 3 Norte 11 Noroeste 0 -- -- 97
2020-05-12 01:00:00 12.4 3 Noroeste 8 Sudoeste 0 -- -- 96
2020-05-12 00:00:00 12.7 3 Sudoeste 8 Noroeste 0 -- -- 95
2020-05-11 23:00:00 12.9 3 Nordeste 10 Norte 0 -- -- 95
2020-05-11 22:00:00 13.2 2 Norte 8 Norte 0 -- -- 93
2020-05-11 21:00:00 14.1 3 Nordeste 11 Norte 0 -- -- 88
2020-05-11 20:00:00 14.7 5 Norte 13 Nordeste 0 -- -- 82
2020-05-11 19:00:00 15 4 Nordeste 23 Norte 0 -- -- 82
2020-05-11 18:00:00 15.8 12 Norte 26 Norte 0 -- -- 79
2020-05-11 17:00:00 17.5 13 Norte 26 Norte 0 -- -- 70
2020-05-11 16:00:00 18.2 8 Norte 26 Norte 0 -- -- 71
2020-05-11 15:00:00 17.5 9 Norte 21 Norte 0 -- -- 75
2020-05-11 14:00:00 17.3 8 Norte 22 Norte 0 -- -- 73
2020-05-11 13:00:00 17.1 5 Nordeste 21 Norte 0 -- -- 71
2020-05-11 12:00:00 16.7 13 Norte 21 Norte 0 -- -- 70
2020-05-11 11:00:00 14.5 5 Norte 10 Norte 0 -- -- 86
2020-05-11 10:00:00 11.9 0 Calma 8 Este 0 -- -- 96
2020-05-11 09:00:00 10.3 3 Sudeste 6 Sudeste 0 -- -- 100
2020-05-11 08:00:00 9.2 0 Calma 5 Sudoeste 0 -- -- 100
2020-05-11 07:00:00 9.1 3 Sur 15 Sudeste 0 -- -- 98
2020-05-11 06:00:00 10.3 10 Sudeste 18 Sudeste 0 -- -- 97
2020-05-11 05:00:00 10.2 6 Sudeste 14 Sudeste 0 -- -- 100
2020-05-11 04:00:00 10.2 0 Calma 8 Sudeste 0 -- -- 100
2020-05-11 03:00:00 10.3 3 Sudoeste 5 Sur 0 -- -- 100
2020-05-11 02:00:00 10.5 2 Oeste 6 Sudoeste 0 -- -- 99
2020-05-11 01:00:00 11.5 4 Sudeste 7 Sudeste 0 -- -- 99
2020-05-11 00:00:00 11.8 3 Sudoeste 5 Sudoeste 0.2 -- -- 97
2020-05-10 23:00:00 12.7 0 Calma 4 Sudoeste 0 -- -- 97
2020-05-10 22:00:00 13.1 0 Calma 3 Sudoeste 0.2 -- -- 96
2020-05-10 21:00:00 13.5 0 Calma 6 Sudoeste 0 -- -- 91
2020-05-10 20:00:00 13.7 3 Nordeste 8 Sudoeste 0 -- -- 93
2020-05-10 19:00:00 13.7 2 Nordeste 13 Norte 0 -- -- 93
2020-05-10 18:00:00 14.3 6 Norte 10 Norte 0.6 -- -- 92
2020-05-10 17:00:00 13.7 3 Noroeste 13 Norte 0.2 -- -- 92
2020-05-10 16:00:00 14.3 4 Norte 8 Norte 0 -- -- 89
2020-05-10 15:00:00 13.9 3 Norte 12 Norte 0 -- -- 89
2020-05-10 14:00:00 13.6 4 Oeste 12 Sudoeste 0.2 -- -- 93
2020-05-10 13:00:00 13.4 3 Sudoeste 13 Sudoeste 0.4 -- -- 94
2020-05-10 12:00:00 13.6 5 Norte 9 Norte 0.2 -- -- 95
2020-05-10 11:00:00 13 2 Este 6 Sudeste 0 -- -- 97
2020-05-10 10:00:00 12.3 3 Este 6 Sudeste 0.4 -- -- 99
2020-05-10 09:00:00 11.9 2 Sudeste 6 Noroeste 1.8 -- -- 99
2020-05-10 08:00:00 11.6 3 Noroeste 14 Nordeste 2.6 -- -- 98
2020-05-10 07:00:00 12.5 8 Norte 15 Norte 0.2 -- -- 99
2020-05-10 06:00:00 12.7 3 Oeste 6 Noroeste 0.4 -- -- 98
2020-05-10 05:00:00 13.2 2 Noroeste 10 Oeste 0.2 -- -- 98
2020-05-10 04:00:00 13.2 3 Noroeste 9 Oeste 0.2 -- -- 97
2020-05-10 03:00:00 13.4 3 Sudoeste 13 Noroeste 0 -- -- 98
2020-05-10 02:00:00 13.5 0 Calma 6 Noroeste 0.2 -- -- 99
2020-05-10 01:00:00 13.8 2 Norte 5 Noroeste 0.6 -- -- 98
2020-05-10 00:00:00 14.2 0 Calma 7 Norte 0 -- -- 95
2020-05-09 23:00:00 14.2 3 Noroeste 5 Norte 0 -- -- 95
2020-05-09 22:00:00 14.3 2 Noroeste 13 Norte 0 -- -- 95
2020-05-09 21:00:00 14.5 6 Norte 17 Norte 0 -- -- 94
2020-05-09 20:00:00 14.9 4 Norte 22 Norte 0 -- -- 93
2020-05-09 19:00:00 15 12 Norte 23 Norte 0 -- -- 94
2020-05-09 18:00:00 16.3 12 Norte 25 Norte 0 -- -- 87
2020-05-09 17:00:00 17.3 14 Norte 24 Norte 0 -- -- 84
2020-05-09 16:00:00 18.4 12 Norte 25 Norte 0 -- -- 81
2020-05-09 15:00:00 18.6 17 Norte 28 Norte 0 -- -- 77
2020-05-09 14:00:00 17.9 11 Norte 21 Norte 0 -- -- 82
2020-05-09 13:00:00 17.1 6 Nordeste 14 Norte 0 -- -- 86
2020-05-09 12:00:00 15.6 3 Norte 12 Nordeste 0 -- -- 91
2020-05-09 11:00:00 14.3 5 Norte 12 Norte 0 -- -- 98
2020-05-09 10:00:00 13.2 3 Norte 6 Norte 0 -- -- 100
2020-05-09 09:00:00 12.1 0 Calma 4 Norte 0 -- -- 100
2020-05-09 08:00:00 11.1 0 Calma 6 Oeste 0 -- -- 100
2020-05-09 07:00:00 10 0 Calma 4 Sur 0.2 -- -- 100
2020-05-09 06:00:00 10.4 2 Sudoeste 4 Sudoeste 0 -- -- 100
2020-05-09 05:00:00 10.8 0 Calma 4 Sudoeste 0 -- -- 99
2020-05-09 04:00:00 11.6 3 Sudoeste 8 Sudeste 0 -- -- 99
2020-05-09 03:00:00 12.1 3 Sur 7 Sudeste 0 -- -- 99
2020-05-09 02:00:00 12.8 3 Sudeste 6 Este 0 -- -- 99
2020-05-09 01:00:00 13.4 2 Sudoeste 6 Sur 0 -- -- 98
2020-05-09 00:00:00 14.4 3 Sur 5 Sudoeste 0 -- -- 98
2020-05-08 23:00:00 15 5 Norte 12 Norte 0 -- -- 98
2020-05-08 22:00:00 15.4 2 Sudoeste 13 Sudeste 3.2 -- -- 96
2020-05-08 21:00:00 15.7 0 Calma 13 Oeste 0 -- -- 94
2020-05-08 20:00:00 17.1 2 Sudoeste 7 Oeste 0 -- -- 93
2020-05-08 19:00:00 18.4 3 Noroeste 16 Norte 1.4 -- -- 88
2020-05-08 18:00:00 20.4 7 Noroeste 21 Norte 0 -- -- 80
2020-05-08 17:00:00 21.4 5 Oeste 27 Norte 0 -- -- 77
2020-05-08 16:00:00 24.3 6 Oeste 25 Sur 0 -- -- 58
2020-05-08 15:00:00 25.8 13 Sur 24 Sudeste 0 -- -- 53
2020-05-08 14:00:00 25.2 13 Sur 27 Sudeste 0 -- -- 50
2020-05-08 13:00:00 24.3 12 Sudeste 28 Sudeste 0 -- -- 54
2020-05-08 12:00:00 23.4 11 Sur 28 Sur 0 -- -- 57
2020-05-08 11:00:00 19.3 9 Sur 19 Sudeste 0 -- -- 70
2020-05-08 10:00:00 16.4 10 Sudeste 18 Sur 0 -- -- 86
2020-05-08 09:00:00 14.8 6 Sudeste 12 Sudeste 0 -- -- 97
2020-05-08 08:00:00 14.7 3 Sur 22 Sur 0.2 -- -- 96
2020-05-08 07:00:00 14.5 12 Sudoeste 23 Sur 0.2 -- -- 97
2020-05-08 06:00:00 14.4 4 Sur 20 Sur 1.6 -- -- 97
2020-05-08 05:00:00 15.6 7 Sur 28 Sur 1.8 -- -- 92
2020-05-08 04:00:00 16.6 12 Sudeste 25 Sur 0 -- -- 79
2020-05-08 03:00:00 16.4 11 Sudeste 28 Sudeste 0 -- -- 83
2020-05-08 02:00:00 17.2 8 Sudeste 23 Sur 0 -- -- 80
2020-05-08 01:00:00 15.4 12 Sur 28 Sudeste 0 -- -- 95
2020-05-08 00:00:00 14.6 4 Sudoeste 6 Sudoeste 0 -- -- 94
2020-05-07 23:00:00 15.4 3 Sudoeste 5 Sudoeste 0 -- -- 91
2020-05-07 22:00:00 16.5 3 Oeste 7 Noroeste 0 -- -- 85
2020-05-07 21:00:00 18.3 5 Oeste 18 Oeste 0 -- -- 79
2020-05-07 20:00:00 19.7 5 Norte 20 Norte 0 -- -- 74
2020-05-07 19:00:00 21.8 7 Norte 27 Norte 0 -- -- 68
2020-05-07 18:00:00 23.4 10 Norte 24 Norte 0 -- -- 65
2020-05-07 17:00:00 24.2 14 Norte 25 Norte 0 -- -- 61
2020-05-07 16:00:00 24.1 13 Norte 29 Norte 0 -- -- 58
2020-05-07 15:00:00 23.4 15 Norte 25 Norte 0 -- -- 59
2020-05-07 14:00:00 22.8 15 Norte 26 Norte 0 -- -- 57
2020-05-07 13:00:00 21.7 13 Norte 21 Norte 0 -- -- 63
2020-05-07 12:00:00 19.8 8 Norte 14 Norte 0 -- -- 72
2020-05-07 11:00:00 16.7 5 Norte 9 Norte 0 -- -- 79
2020-05-07 10:00:00 14.3 3 Nordeste 6 Sur 0 -- -- 88
2020-05-07 09:00:00 10.8 3 Este 5 Este 0 -- -- 98
2020-05-07 08:00:00 9.4 0 Calma 5 Sudoeste 0 -- -- 97
2020-05-07 07:00:00 9.7 4 Sur 9 Sudeste 0 -- -- 97
2020-05-07 06:00:00 10.1 2 Sudoeste 7 Sur 0 -- -- 95
2020-05-07 05:00:00 11 0 Calma 4 Sudoeste 0 -- -- 94
2020-05-07 04:00:00 11.4 3 Sur 7 Sur 0 -- -- 94
2020-05-07 03:00:00 11.9 2 Sudoeste 9 Sudoeste 0 -- -- 92
2020-05-07 02:00:00 12.8 5 Sudeste 8 Sudeste 0 -- -- 90
2020-05-07 01:00:00 13.4 3 Sudeste 7 Sudeste 0 -- -- 87
2020-05-07 00:00:00 13.3 0 Calma 6 Sudeste 0 -- -- 87
2020-05-06 23:00:00 13.7 2 Sudoeste 9 Oeste 0 -- -- 83
2020-05-06 22:00:00 15.8 5 Oeste 13 Oeste 0 -- -- 72
2020-05-06 21:00:00 16.8 5 Noroeste 12 Norte 0 -- -- 69
2020-05-06 20:00:00 18 6 Norte 15 Noroeste 0 -- -- 67
2020-05-06 19:00:00 19.1 7 Norte 24 Norte 0 -- -- 64
2020-05-06 18:00:00 19.2 8 Norte 27 Norte 0 -- -- 65
2020-05-06 17:00:00 20.2 13 Norte 27 Norte 0 -- -- 63
2020-05-06 16:00:00 21.4 15 Norte 35 Norte 0 -- -- 57
2020-05-06 15:00:00 22.8 15 Norte 30 Norte 0 -- -- 56
2020-05-06 14:00:00 22.3 12 Norte 24 Norte 0 -- -- 57
2020-05-06 13:00:00 21.5 9 Norte 16 Norte 0 -- -- 58
2020-05-06 12:00:00 20.1 7 Norte 12 Nordeste 0 -- -- 65
2020-05-06 11:00:00 17.7 5 Norte 7 Norte 0 -- -- 67
2020-05-06 10:00:00 14.9 3 Este 13 Sudeste 0 -- -- 75
2020-05-06 09:00:00 11.1 6 Sudeste 10 Sudeste 0 -- -- 89
2020-05-06 08:00:00 8.4 0 Calma 4 Este 0 -- -- 97
2020-05-06 07:00:00 8.4 2 Sudoeste 12 Sudeste 0 -- -- 96
2020-05-06 06:00:00 8.9 4 Sur 9 Sudeste 0 -- -- 94
2020-05-06 05:00:00 9.3 3 Sur 11 Sudeste 0 -- -- 93
2020-05-06 04:00:00 9.8 6 Sur 14 Sudeste 0 -- -- 93
2020-05-06 03:00:00 10.5 2 Sudeste 8 Sur 0 -- -- 92
2020-05-06 02:00:00 11.2 3 Sudoeste 9 Sudeste 0 -- -- 91
2020-05-06 01:00:00 12.5 5 Sur 11 Sudeste 0 -- -- 88
2020-05-06 00:00:00 13.9 4 Sur 10 Sudeste 0 -- -- 88
2020-05-05 23:00:00 14.8 3 Sur 8 Sudeste 0 -- -- 86
2020-05-05 22:00:00 16.3 2 Sudoeste 9 Sudoeste 0 -- -- 80
2020-05-05 21:00:00 18.6 5 Oeste 13 Sudoeste 0 -- -- 71
2020-05-05 20:00:00 19.7 4 Noroeste 14 Norte 0 -- -- 67
2020-05-05 19:00:00 20.5 3 Noroeste 13 Noroeste 0 -- -- 64
2020-05-05 18:00:00 20.5 3 Norte 10 Sudoeste 0 -- -- 62
2020-05-05 17:00:00 20.6 4 Norte 12 Norte 0 -- -- 57
2020-05-05 16:00:00 21.1 4 Norte 21 Norte 0 -- -- 55
2020-05-05 15:00:00 20.8 10 Norte 26 Norte 0 -- -- 55
2020-05-05 14:00:00 22.6 5 Nordeste 22 Sudeste 0 -- -- 41
2020-05-05 13:00:00 21.9 13 Sudeste 23 Este 0 -- -- 46
2020-05-05 12:00:00 19.2 2 Norte 6 Norte 0 -- -- 55
2020-05-05 11:00:00 17.3 4 Norte 8 Norte 0 -- -- 70
2020-05-05 10:00:00 15.3 0 Calma 8 Sudeste 0 -- -- 72
2020-05-05 09:00:00 13.8 6 Sudeste 14 Sudeste 0 -- -- 74
2020-05-05 08:00:00 11.7 2 Sudeste 14 Sudeste 0 -- -- 79
2020-05-05 07:00:00 12.3 4 Sudeste 15 Sudeste 0 -- -- 73
2020-05-05 06:00:00 13.9 3 Sur 11 Oeste 0 -- -- 64
2020-05-05 05:00:00 16.1 5 Oeste 27 Sur 0 -- -- 54
2020-05-05 04:00:00 16.5 12 Sur 24 Sur 0 -- -- 52
2020-05-05 03:00:00 16.3 10 Sur 18 Este 0 -- -- 53
2020-05-05 02:00:00 16.4 9 Sur 21 Sur 0 -- -- 53
2020-05-05 01:00:00 17.3 5 Sudeste 25 Sudeste 0 -- -- 54
2020-05-05 00:00:00 16.8 3 Sudoeste 14 Este 0 -- -- 56
2020-05-04 23:00:00 17.3 4 Sudoeste 16 Este 0 -- -- 55
2020-05-04 22:00:00 18.9 8 Sur 34 Sudeste 0 -- -- 52
2020-05-04 21:00:00 19.6 9 Sur 31 Sur 0 -- -- 53
2020-05-04 20:00:00 20.5 7 Sur 36 Sudeste 0 -- -- 51
2020-05-04 19:00:00 24.7 17 Sur 60 Sudeste 0.2 -- -- 40
2020-05-04 18:00:00 26 14 Sur 34 Sudeste 0 -- -- 45
2020-05-04 17:00:00 22.7 10 Sudoeste 18 Sudoeste 0.6 -- -- 69
2020-05-04 16:00:00 25.4 6 Sur 42 Sudeste 0.2 -- -- 57
2020-05-04 15:00:00 29.8 18 Sudeste 51 Sudeste 0 -- -- 35
2020-05-04 14:00:00 29.4 19 Sudeste 54 Este 0 -- -- 36
2020-05-04 13:00:00 29.3 20 Este 43 Sudeste 0 -- -- 38
2020-05-04 12:00:00 29 15 Sudeste 40 Este 0 -- -- 37
2020-05-04 11:00:00 27.1 14 Sur 30 Sur 0 -- -- 41
2020-05-04 10:00:00 22.5 3 Sur 10 Sudeste 0 -- -- 70
2020-05-04 09:00:00 20 8 Sur 22 Sudeste 0 -- -- 64
2020-05-04 08:00:00 17.2 10 Sudeste 24 Sur 0 -- -- 73
2020-05-04 07:00:00 20 21 Sur 33 Sudeste 0 -- -- 58
2020-05-04 06:00:00 17.5 8 Sur 14 Sudeste 0 -- -- 70
2020-05-04 05:00:00 16.5 2 Noroeste 15 Sudeste 0 -- -- 80
2020-05-04 04:00:00 15.9 4 Sur 17 Sudeste 0 -- -- 82
2020-05-04 03:00:00 14.1 3 Sudoeste 13 Sudeste 0 -- -- 93
2020-05-04 02:00:00 14.3 3 Sur 6 Noroeste 0 -- -- 95
2020-05-04 01:00:00 15.3 4 Sur 10 Sudeste 0 -- -- 95
2020-05-04 00:00:00 16.5 2 Nordeste 9 Sur 0 -- -- 92
2020-05-03 23:00:00 17.6 3 Sur 6 Sur 0 -- -- 92
2020-05-03 22:00:00 19 4 Sudoeste 10 Sudoeste 0 -- -- 86
2020-05-03 21:00:00 21.7 7 Sudoeste 17 Oeste 0 -- -- 76
2020-05-03 20:00:00 22.9 3 Norte 18 Norte 0 -- -- 73
2020-05-03 19:00:00 23.7 10 Norte 22 Norte 0 -- -- 69
2020-05-03 18:00:00 24.2 12 Norte 25 Norte 0 -- -- 67
2020-05-03 17:00:00 24.4 12 Norte 25 Norte 0 -- -- 66
2020-05-03 16:00:00 24.1 9 Norte 22 Norte 0 -- -- 64
2020-05-03 15:00:00 23.2 12 Norte 23 Norte 0 -- -- 67
2020-05-03 14:00:00 21.9 13 Norte 23 Norte 0 -- -- 68
2020-05-03 13:00:00 20.5 12 Norte 22 Norte 0 -- -- 73
2020-05-03 12:00:00 18.9 9 Norte 20 Norte 0 -- -- 75
2020-05-03 11:00:00 17.5 9 Norte 16 Norte 0 -- -- 80
2020-05-03 10:00:00 15.9 5 Norte 10 Norte 0 -- -- 87
2020-05-03 09:00:00 14.1 2 Sudeste 6 Este 0 -- -- 95
2020-05-03 08:00:00 12.7 0 Calma 5 Norte 0 -- -- 96
2020-05-03 07:00:00 12.5 0 Calma 3 Nordeste 0 -- -- 96
2020-05-03 06:00:00 12.3 0 Calma 5 Norte 0 -- -- 97
2020-05-03 05:00:00 12.2 0 Calma 5 Sur 0 -- -- 97
2020-05-03 04:00:00 11.8 0 Calma 3 Oeste 0 -- -- 96
2020-05-03 03:00:00 12.5 0 Calma 3 Oeste 0 -- -- 94
2020-05-03 02:00:00 13.5 0 Calma 5 Sudoeste 0 -- -- 92
2020-05-03 01:00:00 14.9 2 Oeste 4 Noroeste 0 -- -- 89
2020-05-03 00:00:00 16.4 0 Calma 8 Oeste 0 -- -- 83
2020-05-02 23:00:00 17 3 Oeste 10 Noroeste 0 -- -- 80
2020-05-02 22:00:00 17.7 4 Noroeste 17 Norte 0 -- -- 78
2020-05-02 21:00:00 19.2 4 Noroeste 15 Norte 0 -- -- 70
2020-05-02 20:00:00 20.4 5 Norte 16 Norte 0 -- -- 68
2020-05-02 19:00:00 21.6 9 Norte 26 Norte 0 -- -- 62
2020-05-02 18:00:00 23 12 Norte 24 Norte 0 -- -- 58
2020-05-02 17:00:00 23.2 9 Norte 27 Norte 0 -- -- 57
2020-05-02 16:00:00 23.1 13 Norte 28 Norte 0 -- -- 57
2020-05-02 15:00:00 23.7 14 Norte 25 Norte 0 -- -- 55
2020-05-02 14:00:00 23.6 10 Norte 19 Norte 0 -- -- 53
2020-05-02 13:00:00 22.9 9 Norte 21 Norte 0 -- -- 55
2020-05-02 12:00:00 23 7 Este 22 Sudeste 0 -- -- 51
2020-05-02 11:00:00 20.7 8 Sudeste 15 Sudeste 0 -- -- 59
2020-05-02 10:00:00 15.8 3 Nordeste 7 Nordeste 0 -- -- 83
2020-05-02 09:00:00 11.5 0 Calma 4 Noroeste 0 -- -- 97
2020-05-02 08:00:00 10.2 0 Calma 3 Oeste 0 -- -- 97
2020-05-02 07:00:00 10 0 Calma 4 Sudoeste 0 -- -- 96
2020-05-02 06:00:00 10.4 0 Calma 4 Sudeste 0 -- -- 94
2020-05-02 05:00:00 11 2 Sudeste 5 Oeste 0 -- -- 93
2020-05-02 04:00:00 11.6 0 Calma 5 Sudoeste 0 -- -- 91
2020-05-02 03:00:00 12.6 0 Calma 12 Norte 0 -- -- 87
2020-05-02 02:00:00 14.2 3 Sudeste 16 Sudeste 0 -- -- 79
2020-05-02 01:00:00 14.1 4 Sudeste 12 Sur 0 -- -- 83
2020-05-02 00:00:00 14.6 3 Sudoeste 10 Oeste 0 -- -- 85
2020-05-01 23:00:00 15.8 2 Oeste 6 Sudoeste 0 -- -- 77
2020-05-01 22:00:00 18.3 3 Sur 14 Sur 0 -- -- 72
2020-05-01 21:00:00 20.8 9 Sur 24 Sudeste 0 -- -- 58
2020-05-01 20:00:00 21.6 14 Sur 28 Sur 0 -- -- 57
2020-05-01 19:00:00 22.5 13 Sur 38 Sudeste 0 -- -- 55
2020-05-01 18:00:00 24 14 Sur 43 Sudeste 0 -- -- 49
2020-05-01 17:00:00 25.1 9 Sur 39 Sudeste 0 -- -- 49
2020-05-01 16:00:00 24.4 7 Sur 16 Sudeste 0 -- -- 52
2020-05-01 15:00:00 24 8 Sudeste 13 Sudeste 0 -- -- 55
2020-05-01 14:00:00 21.9 6 Sudeste 22 Sur 0 -- -- 62
2020-05-01 13:00:00 20.9 9 Sur 20 Sudeste 0 -- -- 64
2020-05-01 12:00:00 20.4 3 Sudoeste 20 Sudeste 0 -- -- 71
2020-05-01 11:00:00 20.3 9 Sur 24 Sur 0 -- -- 63
2020-05-01 10:00:00 19.3 12 Sur 27 Sur 0 -- -- 63
2020-05-01 09:00:00 19.1 12 Sur 22 Sur 0 -- -- 62
2020-05-01 08:00:00 18.8 12 Sur 27 Sur 0 -- -- 62
2020-05-01 07:00:00 17.6 12 Sur 21 Sur 0 -- -- 68
2020-05-01 06:00:00 16.6 12 Sudeste 19 Sudeste 0 -- -- 75
2020-05-01 05:00:00 16 12 Sudeste 18 Sudeste 0 -- -- 79
2020-05-01 04:00:00 16.9 9 Sudeste 18 Sudeste 0 -- -- 74
2020-05-01 03:00:00 17.1 9 Sur 19 Sudeste 0 -- -- 70
2020-05-01 02:00:00 17.6 11 Sur 21 Sur 0 -- -- 65
2020-05-01 01:00:00 18 12 Sur 31 Sudeste 0 -- -- 63
2020-05-01 00:00:00 17.9 12 Sur 28 Sur 0 -- -- 63
2020-04-30 23:00:00 18 16 Sur 31 Sur 0 -- -- 61
2020-04-30 22:00:00 17.7 12 Sur 23 Sur 0 -- -- 61
2020-04-30 21:00:00 18.1 12 Sur 23 Sudeste 0 -- -- 58
2020-04-30 20:00:00 18.4 13 Sur 30 Sur 0 -- -- 58
2020-04-30 19:00:00 18.7 12 Sudeste 32 Sudeste 0 -- -- 56
2020-04-30 18:00:00 18.4 14 Sur 29 Sudeste 0 -- -- 57
2020-04-30 17:00:00 18.5 13 Sudeste 30 Sudeste 0 -- -- 55
2020-04-30 16:00:00 18.8 13 Sur 40 Sudeste 0 -- -- 54
2020-04-30 15:00:00 18.8 17 Sur 36 Sudeste 0 -- -- 54
2020-04-30 14:00:00 18.1 12 Sudeste 32 Sudeste 0 -- -- 54
2020-04-30 13:00:00 18.2 13 Sudeste 33 Sudeste 0 -- -- 54
2020-04-30 12:00:00 16.8 14 Sudeste 23 Sudeste 0 -- -- 55
2020-04-30 11:00:00 16.2 14 Sudeste 27 Sudeste 0 -- -- 54
2020-04-30 10:00:00 14.9 8 Sur 22 Sur 0 -- -- 58
2020-04-30 09:00:00 14.1 6 Sudeste 18 Sudoeste 0 -- -- 56
2020-04-30 08:00:00 12.7 8 Sur 19 Sudeste 0 -- -- 61
2020-04-30 07:00:00 12.8 7 Sur 30 Sur 0 -- -- 61
2020-04-30 06:00:00 12.7 7 Sur 21 Sur 0 -- -- 60
2020-04-30 05:00:00 12.6 9 Sur 17 Sudoeste 0 -- -- 60
2020-04-30 04:00:00 12.9 10 Sudeste 22 Sudeste 0 -- -- 66
2020-04-30 03:00:00 13.2 10 Sur 22 Sur 0 -- -- 63
2020-04-30 02:00:00 13.8 11 Sur 25 Sur 0 -- -- 60
2020-04-30 01:00:00 14 11 Sur 26 Sur 0 -- -- 61
2020-04-30 00:00:00 13.8 11 Sur 20 Sur 0 -- -- 61
2020-04-29 23:00:00 13.7 8 Sur 19 Sudeste 0 -- -- 62
2020-04-29 22:00:00 13.8 8 Sur 26 Sudeste 0 -- -- 61
2020-04-29 21:00:00 15.2 10 Sur 29 Sudeste 0 -- -- 53
2020-04-29 20:00:00 16.5 15 Sudeste 31 Sudeste 0 -- -- 51
2020-04-29 19:00:00 18.1 15 Sudeste 24 Sudeste 0 -- -- 50
2020-04-29 18:00:00 19 9 Sur 28 Sudeste 0 -- -- 45
2020-04-29 17:00:00 18.4 12 Sudeste 29 Este 0 -- -- 58
2020-04-29 16:00:00 17.5 9 Sudeste 37 Sudeste 0 -- -- 63
2020-04-29 15:00:00 16.6 15 Sudeste 36 Sudeste 0 -- -- 63
2020-04-29 14:00:00 16.3 18 Sudeste 36 Este 0 -- -- 62
2020-04-29 13:00:00 17.1 14 Sudeste 30 Sur 0 -- -- 61
2020-04-29 12:00:00 15.9 11 Sur 27 Sudeste 0 -- -- 63
2020-04-29 11:00:00 15.6 6 Sudoeste 20 Sur 0 -- -- 62
2020-04-29 10:00:00 15.5 12 Sur 27 Sudeste 0 -- -- 60
2020-04-29 09:00:00 14.9 11 Sur 24 Sudeste 0 -- -- 61
2020-04-29 08:00:00 14.1 10 Sur 23 Sur 0 -- -- 64
2020-04-29 07:00:00 14.2 11 Sur 22 Sudeste 0 -- -- 62
2020-04-29 06:00:00 13.8 10 Sur 22 Sudeste 0 -- -- 63
2020-04-29 05:00:00 13.7 10 Sur 23 Sur 0 -- -- 63
2020-04-29 04:00:00 13.4 10 Sur 21 Sudeste 0 -- -- 64
2020-04-29 03:00:00 11 9 Sur 17 Sur 0 -- -- 75
2020-04-29 02:00:00 9.3 4 Norte 14 Sur 0 -- -- 93
2020-04-29 01:00:00 9.4 2 Oeste 15 Sudeste 0 -- -- 92
2020-04-29 00:00:00 10.4 8 Sudeste 18 Sudeste 0 -- -- 93
2020-04-28 23:00:00 11 4 Sudeste 7 Sudeste 0 -- -- 91
2020-04-28 22:00:00 11.6 2 Oeste 11 Oeste 0 -- -- 89
2020-04-28 21:00:00 12.8 5 Oeste 13 Oeste 0 -- -- 81
2020-04-28 20:00:00 13.2 0 Calma 15 Sudoeste 0 -- -- 82
2020-04-28 19:00:00 14 3 Norte 27 Norte 0 -- -- 76
2020-04-28 18:00:00 15 21 Norte 39 Norte 0 -- -- 68
2020-04-28 17:00:00 16.1 9 Norte 19 Norte 0 -- -- 56
2020-04-28 16:00:00 17.1 5 Norte 17 Nordeste 0 -- -- 54
2020-04-28 15:00:00 16 4 Noroeste 8 Nordeste 0 -- -- 55
2020-04-28 14:00:00 15.8 2 Este 6 Sur 0 -- -- 58
2020-04-28 13:00:00 14.8 3 Sudeste 12 Nordeste 0 -- -- 61
2020-04-28 12:00:00 14.5 6 Norte 13 Norte 0 -- -- 63
2020-04-28 11:00:00 13.4 7 Norte 13 Norte 0 -- -- 81
2020-04-28 10:00:00 11.6 3 Nordeste 6 Este 0 -- -- 91
2020-04-28 09:00:00 9 0 Calma 5 Sudoeste 0 -- -- 100
2020-04-28 08:00:00 8 0 Calma 4 Este 0.2 -- -- 100
2020-04-28 07:00:00 8 3 Norte 6 Sur 0 -- -- 100
2020-04-28 06:00:00 8.2 3 Nordeste 12 Sudeste 0 -- -- 100
2020-04-28 05:00:00 8.3 0 Calma 6 Noroeste 0 -- -- 100
2020-04-28 04:00:00 8.2 3 Norte 9 Este 0 -- -- 100
2020-04-28 03:00:00 8.4 0 Calma 4 Sudoeste 0 -- -- 100
2020-04-28 02:00:00 9 5 Sur 6 Sur 0 -- -- 100
2020-04-28 01:00:00 9.3 0 Calma 4 Sudoeste 0 -- -- 100
2020-04-28 00:00:00 9.4 4 Sudoeste 11 Este 0 -- -- 99
2020-04-27 23:00:00 10.1 0 Calma 5 Sudeste 0 -- -- 99
2020-04-27 22:00:00 10.2 0 Calma 4 Sur 0.4 -- -- 99
2020-04-27 21:00:00 10.5 4 Sur 5 Sur 1.2 -- -- 98
2020-04-27 20:00:00 10.5 3 Norte 23 Sudoeste 1 -- -- 94
2020-04-27 19:00:00 11.5 7 Sudoeste 19 Norte 0.4 -- -- 89
2020-04-27 18:00:00 12.1 6 Oeste 17 Nordeste 2.4 -- -- 93
2020-04-27 17:00:00 13.2 4 Nordeste 20 Nordeste 1.6 -- -- 87
2020-04-27 16:00:00 15.1 5 Noroeste 21 Norte 0 -- -- 76
2020-04-27 15:00:00 13.5 6 Norte 16 Norte 0.4 -- -- 84
2020-04-27 14:00:00 14.4 9 Nordeste 22 Norte 0.2 -- -- 77
2020-04-27 13:00:00 14.1 6 Nordeste 17 Norte 0 -- -- 78
2020-04-27 12:00:00 13.3 6 Norte 12 Norte 0 -- -- 93
2020-04-27 11:00:00 12.3 4 Nordeste 9 Norte 0 -- -- 91
2020-04-27 10:00:00 11.4 0 Calma 6 Norte 0 -- -- 100
2020-04-27 09:00:00 10.5 0 Calma 6 Sudeste 0 -- -- 100
2020-04-27 08:00:00 10.1 2 Norte 4 Norte 0 -- -- 100
2020-04-27 07:00:00 10 0 Calma 4 Sur 0 -- -- 100
2020-04-27 06:00:00 9.9 2 Sudeste 6 Oeste 0 -- -- 100
2020-04-27 05:00:00 10 2 Sudoeste 5 Sudeste 0 -- -- 100
2020-04-27 04:00:00 10.9 2 Sur 4 Sur 0 -- -- 100
2020-04-27 03:00:00 11 0 Calma 3 Sur 0 -- -- 100
2020-04-27 02:00:00 10.9 0 Calma 3 Oeste 0 -- -- 100
2020-04-27 01:00:00 10.8 0 Calma 3 Noroeste 1.8 -- -- 100
2020-04-27 00:00:00 11.2 0 Calma 4 Noroeste 1.6 -- -- 100
2020-04-26 23:00:00 11.5 3 Noroeste 6 Noroeste 0.4 -- -- 100
2020-04-26 22:00:00 11.7 0 Calma 12 Sudoeste 0.2 -- -- 99
2020-04-26 21:00:00 11.8 5 Sudoeste 14 Noroeste 3 -- -- 99
2020-04-26 20:00:00 12.4 5 Noroeste 15 Noroeste 0.4 -- -- 97
2020-04-26 19:00:00 13 5 Sur 13 Sudoeste 3.2 -- -- 98
2020-04-26 18:00:00 13.5 4 Oeste 18 Noroeste 1.4 -- -- 97
2020-04-26 17:00:00 14.5 12 Norte 25 Noroeste 2.4 -- -- 94
2020-04-26 16:00:00 14.9 3 Norte 15 Norte 0.4 -- -- 93
2020-04-26 15:00:00 15.9 4 Noroeste 20 Norte 0.4 -- -- 90
2020-04-26 14:00:00 16.7 12 Norte 19 Norte 0 -- -- 86
2020-04-26 13:00:00 16 11 Norte 18 Norte 0 -- -- 88
2020-04-26 12:00:00 15.1 8 Norte 14 Nordeste 0 -- -- 93
2020-04-26 11:00:00 13.5 5 Sudoeste 10 Sudoeste 0 -- -- 99
2020-04-26 10:00:00 -- 0 Calma -- -- 0 -- -- --
2020-04-26 09:00:00 13 2 Oeste 8 Oeste 0.2 -- -- 100
2020-04-26 08:00:00 12.9 3 Norte 5 Norte 0 -- -- 100
2020-04-26 07:00:00 13 2 Norte 4 Norte 0 -- -- 100
2020-04-26 06:00:00 13.1 0 Calma 3 Norte 0 -- -- 100
2020-04-26 05:00:00 13.1 0 Calma 5 Noroeste 0 -- -- 99
2020-04-26 04:00:00 13.1 2 Noroeste 5 Oeste 0.2 -- -- 99
2020-04-26 03:00:00 13.3 0 Calma 7 Sudoeste 0 -- -- 98
2020-04-26 02:00:00 13.5 3 Sudoeste 9 Noroeste 0 -- -- 98
2020-04-26 01:00:00 13.6 3 Noroeste 10 Noroeste 0 -- -- 97
2020-04-26 00:00:00 13.8 0 Calma 4 Norte 0 -- -- 98